createdAt,value
2018-12-04T00:00:35.012Z,10.44
2018-12-04T00:03:03.207Z,10.45
2018-12-04T00:05:30.659Z,10.43
2018-12-04T00:07:58.134Z,10.43
2018-12-04T00:10:25.596Z,10.45
2018-12-04T00:12:53.060Z,10.42
2018-12-04T00:15:20.533Z,10.40
2018-12-04T00:17:48.017Z,10.39
2018-12-04T00:20:16.034Z,10.39
2018-12-04T00:22:43.501Z,10.28
2018-12-04T00:25:11.017Z,10.12
2018-12-04T00:27:38.475Z,10.04
2018-12-04T00:30:06.461Z,9.95
2018-12-04T00:32:33.937Z,9.85
2018-12-04T00:35:01.401Z,9.73
2018-12-04T00:37:28.841Z,9.52
2018-12-04T00:39:56.370Z,9.40
2018-12-04T00:42:26.437Z,9.31
2018-12-04T00:44:53.877Z,9.11
2018-12-04T00:47:21.347Z,9.07
2018-12-04T00:49:48.837Z,8.98
2018-12-04T00:52:16.444Z,8.84
2018-12-04T00:54:43.928Z,8.79
2018-12-04T00:57:12.031Z,8.73
2018-12-04T00:59:39.605Z,8.67
2018-12-04T01:02:07.880Z,8.59
2018-12-04T01:04:35.331Z,8.46
2018-12-04T01:07:02.895Z,8.49
2018-12-04T01:09:30.379Z,8.31
2018-12-04T01:11:57.855Z,8.31
2018-12-04T01:14:25.327Z,8.26
2018-12-04T01:16:53.217Z,8.21
2018-12-04T01:19:20.681Z,8.21
2018-12-04T01:21:48.133Z,8.20
2018-12-04T01:24:15.590Z,8.13
2018-12-04T01:26:43.068Z,8.18
2018-12-04T01:29:10.546Z,8.10
2018-12-04T01:31:37.998Z,8.07
2018-12-04T01:34:05.453Z,8.06
2018-12-04T01:36:33.377Z,8.11
2018-12-04T01:39:00.847Z,8.01
2018-12-04T01:41:28.316Z,8.03
2018-12-04T01:43:55.838Z,7.97
2018-12-04T01:46:23.312Z,7.97
2018-12-04T01:48:50.768Z,7.90
2018-12-04T01:51:18.236Z,7.86
2018-12-04T01:53:45.854Z,7.91
2018-12-04T01:56:14.007Z,7.87
2018-12-04T01:58:41.519Z,7.84
2018-12-04T02:01:09.032Z,7.83
2018-12-04T02:03:36.499Z,7.76
2018-12-04T02:06:04.011Z,7.71
2018-12-04T02:08:31.454Z,7.72
2018-12-04T02:10:58.923Z,7.71
2018-12-04T02:13:26.380Z,7.74
2018-12-04T02:15:53.850Z,7.66
2018-12-04T02:18:21.303Z,7.69
2018-12-04T02:20:49.023Z,7.69
2018-12-04T02:23:16.503Z,7.67
2018-12-04T02:25:43.960Z,7.67
2018-12-04T02:28:11.467Z,7.67
2018-12-04T02:30:38.939Z,7.64
2018-12-04T02:33:07.098Z,7.64
2018-12-04T02:35:34.599Z,7.63
2018-12-04T02:38:02.097Z,7.68
2018-12-04T02:40:29.556Z,7.67
2018-12-04T02:42:57.068Z,7.61
2018-12-04T02:45:24.532Z,7.61
2018-12-04T02:47:51.992Z,7.58
2018-12-04T02:50:19.475Z,7.59
2018-12-04T02:52:46.949Z,7.61
2018-12-04T02:55:14.383Z,7.61
2018-12-04T02:57:41.871Z,7.65
2018-12-04T03:00:09.487Z,7.64
2018-12-04T03:02:36.943Z,7.63
2018-12-04T03:05:05.004Z,7.64
2018-12-04T03:07:33.410Z,7.66
2018-12-04T03:10:00.905Z,7.66
2018-12-04T03:12:28.360Z,7.66
2018-12-04T03:14:55.892Z,7.66
2018-12-04T03:17:23.373Z,7.65
2018-12-04T03:19:50.867Z,7.65
2018-12-04T03:22:18.736Z,7.65
2018-12-04T03:24:46.184Z,7.65
2018-12-04T03:27:13.663Z,7.62
2018-12-04T03:29:41.120Z,7.67
2018-12-04T03:32:08.635Z,7.65
2018-12-04T03:34:36.206Z,7.65
2018-12-04T03:37:03.728Z,7.66
2018-12-04T03:39:31.224Z,7.63
2018-12-04T03:41:58.666Z,7.64
2018-12-04T03:44:26.127Z,7.63
2018-12-04T03:46:53.599Z,7.65
2018-12-04T03:49:21.051Z,7.66
2018-12-04T03:51:48.501Z,7.64
2018-12-04T03:54:16.205Z,7.66
2018-12-04T03:56:43.654Z,7.64
2018-12-04T03:59:11.827Z,7.64
2018-12-04T04:01:39.344Z,7.65
2018-12-04T04:04:06.844Z,7.64
2018-12-04T04:06:34.291Z,7.63
2018-12-04T04:09:01.765Z,7.62
2018-12-04T04:11:29.213Z,7.63
2018-12-04T04:13:56.669Z,7.62
2018-12-04T04:16:24.243Z,7.61
2018-12-04T04:18:51.852Z,7.57
2018-12-04T04:21:19.324Z,7.55
2018-12-04T04:23:46.761Z,7.55
2018-12-04T04:26:14.244Z,7.53
2018-12-04T04:28:41.992Z,7.46
2018-12-04T04:31:09.447Z,7.46
2018-12-04T04:33:36.894Z,7.40
2018-12-04T04:36:04.502Z,7.42
2018-12-04T04:38:32.043Z,7.40
2018-12-04T04:40:59.513Z,7.41
2018-12-04T04:43:26.991Z,7.41
2018-12-04T04:45:54.460Z,7.47
2018-12-04T04:48:21.941Z,7.47
2018-12-04T04:50:49.409Z,7.46
2018-12-04T04:53:16.858Z,7.43
2018-12-04T04:55:44.336Z,7.44
2018-12-04T04:58:11.781Z,7.41
2018-12-04T05:00:39.284Z,7.36
2018-12-04T05:03:06.735Z,7.28
2018-12-04T05:05:36.188Z,7.22
2018-12-04T05:08:03.703Z,7.22
2018-12-04T05:10:31.164Z,7.18
2018-12-04T05:13:00.298Z,7.15
2018-12-04T05:15:27.749Z,7.16
2018-12-04T05:17:55.217Z,7.10
2018-12-04T05:20:22.690Z,7.05
2018-12-04T05:22:50.250Z,7.05
2018-12-04T05:25:17.685Z,7.02
2018-12-04T05:27:45.159Z,6.97
2018-12-04T05:30:12.622Z,6.92
2018-12-04T05:32:40.112Z,6.88
2018-12-04T05:35:07.641Z,6.88
2018-12-04T05:37:35.112Z,6.84
2018-12-04T05:40:02.947Z,6.82
2018-12-04T05:42:30.431Z,6.80
2018-12-04T05:44:57.903Z,6.81
2018-12-04T05:47:25.362Z,6.81
2018-12-04T05:49:52.810Z,6.73
2018-12-04T05:52:20.272Z,6.65
2018-12-04T05:54:47.837Z,6.64
2018-12-04T05:57:15.331Z,6.69
2018-12-04T05:59:42.822Z,6.60
2018-12-04T06:02:10.295Z,6.52
2018-12-04T06:04:39.394Z,6.55
2018-12-04T06:07:06.892Z,6.53
2018-12-04T06:09:34.628Z,6.55
2018-12-04T06:12:02.079Z,6.52
2018-12-04T06:14:29.583Z,6.52
2018-12-04T06:16:57.136Z,6.46
2018-12-04T06:19:24.619Z,6.43
2018-12-04T06:21:52.079Z,6.41
2018-12-04T06:24:19.928Z,6.49
2018-12-04T06:26:47.456Z,6.41
2018-12-04T06:29:14.907Z,6.44
2018-12-04T06:31:42.365Z,6.44
2018-12-04T06:34:09.829Z,6.40
2018-12-04T06:36:40.564Z,6.44
2018-12-04T06:39:08.162Z,6.44
2018-12-04T06:41:35.643Z,6.39
2018-12-04T06:44:03.164Z,6.40
2018-12-04T06:46:30.651Z,6.34
2018-12-04T06:48:58.175Z,6.32
2018-12-04T06:51:25.647Z,6.29
2018-12-04T06:53:53.126Z,6.25
2018-12-04T06:56:20.652Z,6.24
2018-12-04T06:58:48.102Z,6.20
2018-12-04T07:01:15.615Z,6.16
2018-12-04T07:03:43.250Z,6.13
2018-12-04T07:06:10.741Z,6.10
2018-12-04T07:08:38.214Z,6.10
2018-12-04T07:11:05.686Z,6.08
2018-12-04T07:13:33.147Z,6.07
2018-12-04T07:16:00.595Z,6.02
2018-12-04T07:18:28.053Z,6.03
2018-12-04T07:20:55.526Z,6.07
2018-12-04T07:23:22.992Z,6.06
2018-12-04T07:25:50.469Z,6.07
2018-12-04T07:28:17.929Z,6.05
2018-12-04T07:30:45.657Z,6.05
2018-12-04T07:33:13.201Z,6.06
2018-12-04T07:35:40.733Z,6.08
2018-12-04T07:38:08.240Z,6.05
2018-12-04T07:40:35.709Z,6.07
2018-12-04T07:43:03.184Z,6.03
2018-12-04T07:45:30.650Z,6.02
2018-12-04T07:47:58.118Z,6.04
2018-12-04T07:50:25.605Z,6.04
2018-12-04T07:52:53.075Z,6.02
2018-12-04T07:55:20.793Z,6.04
2018-12-04T07:57:48.242Z,6.06
2018-12-04T08:00:15.713Z,6.07
2018-12-04T08:02:43.176Z,6.12
2018-12-04T08:05:10.637Z,6.30
2018-12-04T08:07:38.127Z,6.47
2018-12-04T08:10:07.188Z,6.47
2018-12-04T08:12:34.641Z,6.39
2018-12-04T08:15:02.106Z,6.42
2018-12-04T08:17:29.546Z,6.41
2018-12-04T08:19:57.020Z,6.44
2018-12-04T08:22:24.461Z,6.51
2018-12-04T08:24:51.913Z,6.65
2018-12-04T08:27:19.469Z,6.74
2018-12-04T08:29:46.976Z,6.71
2018-12-04T08:32:14.444Z,6.87
2018-12-04T08:34:41.913Z,6.99
2018-12-04T08:37:09.389Z,6.96
2018-12-04T08:39:36.842Z,7.11
2018-12-04T08:42:04.293Z,7.20
2018-12-04T08:44:31.758Z,7.45
2018-12-04T08:46:59.210Z,7.50
2018-12-04T08:49:26.710Z,7.57
2018-12-04T08:51:54.179Z,7.87
2018-12-04T08:54:21.657Z,7.93
2018-12-04T08:56:49.114Z,7.99
2018-12-04T08:59:16.569Z,8.21
2018-12-04T09:01:44.077Z,8.21
2018-12-04T09:04:11.558Z,8.33
2018-12-04T09:06:39.014Z,8.30
2018-12-04T09:09:08.516Z,8.15
2018-12-04T09:11:35.972Z,8.22
2018-12-04T09:14:03.521Z,8.30
2018-12-04T09:16:30.964Z,8.08
2018-12-04T09:18:58.432Z,7.97
2018-12-04T09:21:26.033Z,8.03
2018-12-04T09:23:53.623Z,7.99
2018-12-04T09:26:21.141Z,8.22
2018-12-04T09:28:48.751Z,8.42
2018-12-04T09:31:16.345Z,8.30
2018-12-04T09:33:43.826Z,8.42
2018-12-04T09:36:11.453Z,8.25
2018-12-04T09:38:38.920Z,8.28
2018-12-04T09:41:06.409Z,8.43
2018-12-04T09:43:33.870Z,8.48
2018-12-04T09:46:01.332Z,8.69
2018-12-04T09:48:28.808Z,8.23
2018-12-04T09:50:56.281Z,8.32
2018-12-04T09:53:25.289Z,8.36
2018-12-04T09:55:53.226Z,8.35
2018-12-04T09:58:20.725Z,7.98
2018-12-04T10:00:48.180Z,7.97
2018-12-04T10:03:15.681Z,7.78
2018-12-04T10:05:43.177Z,7.81
2018-12-04T10:08:10.642Z,7.63
2018-12-04T10:10:38.100Z,7.67
2018-12-04T10:13:06.052Z,7.61
2018-12-04T10:15:33.592Z,7.50
2018-12-04T10:18:01.064Z,7.69
2018-12-04T10:20:28.512Z,7.57
2018-12-04T10:22:55.960Z,7.56
2018-12-04T10:25:23.457Z,7.69
2018-12-04T10:27:51.366Z,7.55
2018-12-04T10:30:18.854Z,7.62
2018-12-04T10:32:48.291Z,7.53
2018-12-04T10:35:15.800Z,7.50
2018-12-04T10:37:43.270Z,7.55
2018-12-04T10:40:10.755Z,7.61
2018-12-04T10:42:38.224Z,7.45
2018-12-04T10:45:06.415Z,7.60
2018-12-04T10:47:33.869Z,7.53
2018-12-04T10:50:05.721Z,7.60
2018-12-04T10:52:33.221Z,7.57
2018-12-04T10:55:00.703Z,7.61
2018-12-04T10:57:28.169Z,7.66
2018-12-04T10:59:55.647Z,7.72
2018-12-04T11:02:24.518Z,7.72
2018-12-04T11:04:52.029Z,7.73
2018-12-04T11:07:19.545Z,7.69
2018-12-04T11:09:47.008Z,7.60
2018-12-04T11:12:14.465Z,7.60
2018-12-04T11:14:41.916Z,7.57
2018-12-04T11:17:09.437Z,7.61
2018-12-04T11:19:36.884Z,7.61
2018-12-04T11:22:04.354Z,7.66
2018-12-04T11:24:31.836Z,7.49
2018-12-04T11:26:59.315Z,7.64
2018-12-04T11:29:26.793Z,7.69
2018-12-04T11:31:54.270Z,7.71
2018-12-04T11:34:21.751Z,7.61
2018-12-04T11:36:49.229Z,7.69
2018-12-04T11:39:16.670Z,7.72
2018-12-04T11:41:44.127Z,7.68
2018-12-04T11:44:11.590Z,7.72
2018-12-04T11:46:39.060Z,7.73
2018-12-04T11:49:06.839Z,7.72
2018-12-04T11:51:34.313Z,7.74
2018-12-04T11:54:01.856Z,7.73
2018-12-04T11:56:29.626Z,7.77
2018-12-04T11:58:57.247Z,7.79
2018-12-04T12:01:27.815Z,7.79
2018-12-04T12:03:55.407Z,7.79
2018-12-04T12:06:22.968Z,7.82
2018-12-04T12:08:50.431Z,7.85
2018-12-04T12:11:17.893Z,7.76
2018-12-04T12:13:45.377Z,7.77
2018-12-04T12:16:12.857Z,7.81
2018-12-04T12:18:40.298Z,7.77
2018-12-04T12:21:07.818Z,7.75
2018-12-04T12:23:35.310Z,7.69
2018-12-04T12:26:02.768Z,7.69
2018-12-04T12:28:30.229Z,7.72
2018-12-04T12:30:57.724Z,7.72
2018-12-04T12:33:25.200Z,7.71
2018-12-04T12:35:52.656Z,7.74
2018-12-04T12:38:20.189Z,7.77
2018-12-04T12:40:47.655Z,7.75
2018-12-04T12:43:15.131Z,7.71
2018-12-04T12:45:43.196Z,7.73
2018-12-04T12:48:10.654Z,7.69
2018-12-04T12:50:38.163Z,7.71
2018-12-04T12:53:05.701Z,7.69
2018-12-04T12:55:33.208Z,7.64
2018-12-04T12:58:00.651Z,7.67
2018-12-04T13:00:28.116Z,7.67
2018-12-04T13:02:55.573Z,7.65
2018-12-04T13:05:23.504Z,7.61
2018-12-04T13:07:50.956Z,7.58
2018-12-04T13:10:18.468Z,7.59
2018-12-04T13:12:46.000Z,7.58
2018-12-04T13:15:13.511Z,7.55
2018-12-04T13:17:41.047Z,7.60
2018-12-04T13:20:08.731Z,7.55
2018-12-04T13:22:36.205Z,7.54
2018-12-04T13:25:05.702Z,7.51
2018-12-04T13:27:33.174Z,7.49
2018-12-04T13:30:00.669Z,7.50
2018-12-04T13:32:28.127Z,7.44
2018-12-04T13:34:55.583Z,7.43
2018-12-04T13:37:23.055Z,7.46
2018-12-04T13:39:50.555Z,7.43
2018-12-04T13:42:18.049Z,7.41
2018-12-04T13:44:45.631Z,7.40
2018-12-04T13:47:13.091Z,7.38
2018-12-04T13:49:40.567Z,7.36
2018-12-04T13:52:08.071Z,7.36
2018-12-04T13:54:35.680Z,7.34
2018-12-04T13:57:03.129Z,7.31
2018-12-04T13:59:30.765Z,7.28
2018-12-04T14:01:58.289Z,7.26
2018-12-04T14:04:25.774Z,7.24
2018-12-04T14:06:53.283Z,7.24
2018-12-04T14:09:20.759Z,7.19
2018-12-04T14:11:48.230Z,7.23
2018-12-04T14:14:15.725Z,7.13
2018-12-04T14:16:43.243Z,7.13
2018-12-04T14:19:10.745Z,7.11
2018-12-04T14:21:38.211Z,7.07
2018-12-04T14:24:05.685Z,7.01
2018-12-04T14:26:33.387Z,6.98
2018-12-04T14:29:01.000Z,6.91
2018-12-04T14:31:28.630Z,6.90
2018-12-04T14:33:56.163Z,6.91
2018-12-04T14:36:23.664Z,6.88
2018-12-04T14:38:51.108Z,6.86
2018-12-04T14:41:18.614Z,6.80
2018-12-04T14:43:46.230Z,6.76
2018-12-04T14:46:13.789Z,6.74
2018-12-04T14:48:41.246Z,6.72
2018-12-04T14:51:08.755Z,6.70
2018-12-04T14:53:36.254Z,6.66
2018-12-04T14:56:03.709Z,6.61
2018-12-04T14:58:31.168Z,6.60
2018-12-04T15:00:58.661Z,6.59
2018-12-04T15:03:26.165Z,6.58
2018-12-04T15:05:53.662Z,6.51
2018-12-04T15:08:21.210Z,6.51
2018-12-04T15:10:48.700Z,6.50
2018-12-04T15:13:16.288Z,6.44
2018-12-04T15:15:43.907Z,6.41
2018-12-04T15:18:11.381Z,6.37
2018-12-04T15:20:39.557Z,6.33
2018-12-04T15:23:07.104Z,6.32
2018-12-04T15:25:34.698Z,6.26
2018-12-04T15:28:02.553Z,6.22
2018-12-04T15:30:30.124Z,6.21
2018-12-04T15:32:57.700Z,6.18
2018-12-04T15:35:25.296Z,6.15
2018-12-04T15:37:52.829Z,6.09
2018-12-04T15:40:20.450Z,6.06
2018-12-04T15:42:47.955Z,6.04
2018-12-04T15:45:15.555Z,6.04
2018-12-04T15:47:43.199Z,6.07
2018-12-04T15:50:10.875Z,6.05
2018-12-04T15:52:38.380Z,6.02
2018-12-04T15:55:06.081Z,6.01
2018-12-04T15:57:34.186Z,5.95
2018-12-04T16:00:01.681Z,5.87
2018-12-04T16:02:29.131Z,5.85
2018-12-04T16:04:57.179Z,5.80
2018-12-04T16:07:24.681Z,5.73
2018-12-04T16:09:52.150Z,5.76
2018-12-04T16:12:19.613Z,5.70
2018-12-04T16:14:47.103Z,5.64
2018-12-04T16:17:15.370Z,5.64
2018-12-04T16:19:43.181Z,5.61
2018-12-04T16:22:10.697Z,5.57
2018-12-04T16:24:38.162Z,5.45
2018-12-04T16:27:05.614Z,5.44
2018-12-04T16:29:33.064Z,5.46
2018-12-04T16:32:00.523Z,5.37
2018-12-04T16:34:27.967Z,5.31
2018-12-04T16:36:55.469Z,5.28
2018-12-04T16:39:22.930Z,5.25
2018-12-04T16:41:50.409Z,5.19
2018-12-04T16:44:17.866Z,5.16
2018-12-04T16:46:45.340Z,4.95
2018-12-04T16:49:12.773Z,5.03
2018-12-04T16:51:40.268Z,5.00
2018-12-04T16:54:07.716Z,4.88
2018-12-04T16:56:35.224Z,4.73
2018-12-04T16:59:02.806Z,4.68
2018-12-04T17:01:30.290Z,4.66
2018-12-04T17:03:57.772Z,4.71
2018-12-04T17:06:25.218Z,4.70
2018-12-04T17:08:52.678Z,4.56
2018-12-04T17:11:20.121Z,4.58
2018-12-04T17:13:47.587Z,4.46
2018-12-04T17:16:15.037Z,4.50
2018-12-04T17:18:42.504Z,4.49
2018-12-04T17:21:09.985Z,4.47
2018-12-04T17:23:37.433Z,4.40
2018-12-04T17:26:04.958Z,4.31
2018-12-04T17:28:32.451Z,4.28
2018-12-04T17:30:59.961Z,4.24
2018-12-04T17:33:27.491Z,4.28
2018-12-04T17:35:54.973Z,4.22
2018-12-04T17:38:23.575Z,4.14
2018-12-04T17:40:51.029Z,4.07
2018-12-04T17:43:18.642Z,4.06
2018-12-04T17:45:46.092Z,4.04
2018-12-04T17:48:14.108Z,4.05
2018-12-04T17:50:41.560Z,4.05
2018-12-04T17:53:09.011Z,4.05
2018-12-04T17:55:37.006Z,4.02
2018-12-04T17:58:04.474Z,3.98
2018-12-04T18:00:32.584Z,3.97
2018-12-04T18:03:00.066Z,3.99
2018-12-04T18:05:28.033Z,3.94
2018-12-04T18:07:56.407Z,3.99
2018-12-04T18:10:23.945Z,3.97
2018-12-04T18:12:51.432Z,3.99
2018-12-04T18:15:19.099Z,3.99
2018-12-04T18:17:46.627Z,3.99
2018-12-04T18:20:14.094Z,3.94
2018-12-04T18:22:42.781Z,3.89
2018-12-04T18:25:10.371Z,3.86
2018-12-04T18:27:38.027Z,3.86
2018-12-04T18:30:07.061Z,3.88
2018-12-04T18:32:35.560Z,3.88
2018-12-04T18:35:03.600Z,3.87
2018-12-04T18:37:31.930Z,3.84
2018-12-04T18:39:59.659Z,3.84
2018-12-04T18:42:27.697Z,3.84
2018-12-04T18:44:55.401Z,3.82
2018-12-04T18:47:23.103Z,3.83
2018-12-04T18:49:51.699Z,3.81
2018-12-04T18:52:19.337Z,3.81
2018-12-04T18:54:47.614Z,3.82
2018-12-04T18:57:15.305Z,3.82
2018-12-04T18:59:43.049Z,3.80
2018-12-04T19:02:11.414Z,3.77
2018-12-04T19:04:40.159Z,3.77
2018-12-04T19:07:08.143Z,3.81
2018-12-04T19:09:35.650Z,3.73
2018-12-04T19:12:03.215Z,3.68
2018-12-04T19:14:31.591Z,3.68
2018-12-04T19:17:01.893Z,3.66
2018-12-04T19:19:29.579Z,3.63
2018-12-04T19:21:57.062Z,3.64
2018-12-04T19:24:25.868Z,3.63
2018-12-04T19:26:53.882Z,3.63
2018-12-04T19:29:21.339Z,3.63
2018-12-04T19:31:50.042Z,3.61
2018-12-04T19:34:17.490Z,3.59
2018-12-04T19:36:44.964Z,3.57
2018-12-04T19:39:12.408Z,3.56
2018-12-04T19:41:39.916Z,3.48
2018-12-04T19:44:07.509Z,3.51
2018-12-04T19:46:34.968Z,3.51
2018-12-04T19:49:02.429Z,3.49
2018-12-04T19:51:30.266Z,3.47
2018-12-04T19:53:57.853Z,3.46
2018-12-04T19:56:25.720Z,3.47
2018-12-04T19:58:53.157Z,3.44
2018-12-04T20:01:20.633Z,3.40
2018-12-04T20:03:48.113Z,3.37
2018-12-04T20:06:15.794Z,3.37
2018-12-04T20:08:48.827Z,3.37
2018-12-04T20:11:16.303Z,3.34
2018-12-04T20:13:43.844Z,3.33
2018-12-04T20:16:11.315Z,3.34
2018-12-04T20:18:38.774Z,3.32
2018-12-04T20:21:06.332Z,3.31
2018-12-04T20:23:33.793Z,3.32
2018-12-04T20:26:01.612Z,3.25
2018-12-04T20:28:29.122Z,3.23
2018-12-04T20:30:57.051Z,3.25
2018-12-04T20:33:24.731Z,3.20
2018-12-04T20:35:52.205Z,3.25
2018-12-04T20:38:20.886Z,3.22
2018-12-04T20:40:48.411Z,3.21
2018-12-04T20:43:15.862Z,3.23
2018-12-04T20:45:43.356Z,3.19
2018-12-04T20:48:11.633Z,3.16
2018-12-04T20:50:39.221Z,3.12
2018-12-04T20:53:06.903Z,3.16
2018-12-04T20:55:34.406Z,3.14
2018-12-04T20:58:02.753Z,3.10
2018-12-04T21:00:30.207Z,3.14
2018-12-04T21:02:57.755Z,3.10
2018-12-04T21:05:25.373Z,3.11
2018-12-04T21:07:53.965Z,3.09
2018-12-04T21:10:21.878Z,3.10
2018-12-04T21:12:49.356Z,3.08
2018-12-04T21:15:16.823Z,3.05
2018-12-04T21:17:44.278Z,2.98
2018-12-04T21:20:11.744Z,2.96
2018-12-04T21:22:39.211Z,2.97
2018-12-04T21:25:06.681Z,2.94
2018-12-04T21:27:39.966Z,2.93
2018-12-04T21:30:13.204Z,2.93
2018-12-04T21:32:46.349Z,2.89
2018-12-04T21:35:19.929Z,2.86
2018-12-04T21:37:52.931Z,2.83
2018-12-04T21:43:34.294Z,2.88
2018-12-04T21:46:07.468Z,2.85
2018-12-04T21:48:35.491Z,2.86
2018-12-04T21:51:03.421Z,2.84
2018-12-04T21:53:31.848Z,2.81
2018-12-04T21:56:00.259Z,2.78
2018-12-04T21:58:27.730Z,2.77
2018-12-04T22:00:55.174Z,2.81
2018-12-04T22:03:22.627Z,2.74
2018-12-04T22:05:50.110Z,2.79
2018-12-04T22:08:17.574Z,2.80
2018-12-04T22:10:45.893Z,2.76
2018-12-04T22:13:13.357Z,2.76
2018-12-04T22:15:40.810Z,2.74
2018-12-04T22:18:08.323Z,2.74
2018-12-04T22:20:36.756Z,2.75
2018-12-04T22:23:04.295Z,2.75
2018-12-04T22:25:32.481Z,2.73
2018-12-04T22:28:00.184Z,2.71
2018-12-04T22:30:28.433Z,2.71
2018-12-04T22:32:55.904Z,2.65
2018-12-04T22:35:23.370Z,2.70
2018-12-04T22:37:50.848Z,2.65
2018-12-04T22:40:18.912Z,2.67
2018-12-04T22:42:47.474Z,2.64
2018-12-04T22:45:30.462Z,2.60
2018-12-04T22:47:57.964Z,2.57
2018-12-04T22:50:25.969Z,2.56
2018-12-04T22:52:53.581Z,2.49
2018-12-04T22:55:21.360Z,2.44
2018-12-04T22:57:50.352Z,2.43
2018-12-04T23:00:24.679Z,2.43
2018-12-04T23:02:52.193Z,2.36
2018-12-04T23:05:19.892Z,2.34
2018-12-04T23:07:47.538Z,2.35
2018-12-04T23:10:15.037Z,2.31
2018-12-04T23:12:42.709Z,2.28
2018-12-04T23:15:10.338Z,2.25
2018-12-04T23:17:37.847Z,2.24
2018-12-04T23:20:05.704Z,2.24
2018-12-04T23:25:09.353Z,2.16
2018-12-04T23:27:36.931Z,2.15
2018-12-04T23:30:06.542Z,2.12
2018-12-04T23:32:34.177Z,2.10
2018-12-04T23:35:02.824Z,2.08
2018-12-04T23:37:30.473Z,2.07
2018-12-04T23:39:58.212Z,2.05
2018-12-04T23:42:25.895Z,1.99
2018-12-04T23:44:53.624Z,1.97
2018-12-04T23:47:21.392Z,1.96
2018-12-04T23:49:49.055Z,1.95
2018-12-04T23:52:16.523Z,1.96
2018-12-04T23:54:43.986Z,1.93
2018-12-04T23:57:11.439Z,1.93
2018-12-04T23:59:38.906Z,1.93
